Time;durP1;ratioP1;P1;durP2;ratioP2;P2;SDS_P1;SDS_P2;PMS_P1;PMS_P2;Temp;Humidity;BMP_temperature;BMP_pressure;BME280_temperature;BME280_humidity;BME280_pressure;Samples;Min_cycle;Max_cycle;Signal;HPM_P1;HPM_P2
2021/07/16 00:02:12;;;;;;;6.25;3.58;;;28.30;50.70;;;;;;4310743;33;20536;-37
2021/07/16 00:04:38;;;;;;;7.93;4.07;;;28.30;50.40;;;;;;4298643;33;20223;-36
2021/07/16 00:07:07;;;;;;;4.53;3.55;;;28.30;50.20;;;;;;4310759;33;20067;-36
2021/07/16 00:09:33;;;;;;;8.80;3.67;;;28.30;50.20;;;;;;4298839;33;20087;-36
2021/07/16 00:12:00;;;;;;;4.35;3.40;;;28.30;50.30;;;;;;4281601;33;20068;-36
2021/07/16 00:14:26;;;;;;;5.75;3.30;;;28.20;50.30;;;;;;4270233;33;20180;-36
2021/07/16 00:16:54;;;;;;;4.43;4.03;;;28.30;50.50;;;;;;4282068;33;20076;-36
2021/07/16 00:19:21;;;;;;;5.22;3.17;;;28.30;50.60;;;;;;4267265;33;20099;-37
2021/07/16 00:21:48;;;;;;;3.50;3.20;;;28.20;50.60;;;;;;4255687;33;20087;-36
2021/07/16 00:24:14;;;;;;;3.97;3.47;;;28.20;50.70;;;;;;4267284;33;20156;-36
2021/07/16 00:26:41;;;;;;;4.18;3.78;;;28.20;50.80;;;;;;4267805;33;20541;-36
2021/07/16 00:29:07;;;;;;;6.00;4.25;;;28.20;50.90;;;;;;4255909;33;20072;-37
2021/07/16 00:31:37;;;;;;;6.22;3.92;;;28.20;51.00;;;;;;4267318;33;20057;-36
2021/07/16 00:34:04;;;;;;;3.72;3.42;;;28.20;50.90;;;;;;4256695;33;20069;-36
2021/07/16 00:36:30;;;;;;;5.15;3.92;;;28.20;51.00;;;;;;4281887;33;20091;-36
2021/07/16 00:38:57;;;;;;;10.95;3.97;;;28.20;51.10;;;;;;4215831;33;20109;-36
2021/07/16 00:41:23;;;;;;;4.40;3.67;;;28.30;51.30;;;;;;4241457;33;20168;-37
2021/07/16 00:43:50;;;;;;;9.02;4.18;;;28.20;51.40;;;;;;4241619;33;20089;-37
2021/07/16 00:46:16;;;;;;;4.68;3.50;;;28.30;51.50;;;;;;4241428;33;20617;-37
2021/07/16 00:48:43;;;;;;;7.18;3.85;;;28.30;51.40;;;;;;4244120;33;20171;-37
2021/07/16 00:51:10;;;;;;;4.93;3.62;;;28.40;52.00;;;;;;4255858;33;20071;-37
2021/07/16 00:53:38;;;;;;;6.28;3.97;;;28.40;51.00;;;;;;4243797;33;20077;-37
2021/07/16 00:56:05;;;;;;;7.32;4.20;;;28.50;50.70;;;;;;4250071;33;20270;-37
2021/07/16 00:58:31;;;;;;;7.80;3.97;;;28.50;50.40;;;;;;4295163;33;20297;-37
2021/07/16 01:01:02;;;;;;;6.35;3.67;;;28.50;50.20;;;;;;4298428;33;20083;-37
2021/07/16 01:03:28;;;;;;;10.98;5.05;;;28.60;50.10;;;;;;4286554;33;20554;-37
2021/07/16 01:05:55;;;;;;;10.20;4.50;;;28.60;50.20;;;;;;4298665;33;20067;-37
2021/07/16 01:08:21;;;;;;;4.75;3.97;;;28.60;50.20;;;;;;4306925;33;20115;-37
2021/07/16 01:10:48;;;;;;;10.23;4.15;;;28.50;50.20;;;;;;4339099;32;20054;-37
2021/07/16 01:13:14;;;;;;;5.55;4.03;;;28.50;50.30;;;;;;4345652;32;20109;-37
2021/07/16 01:15:41;;;;;;;8.27;4.18;;;28.50;50.50;;;;;;4345531;32;20175;-37
2021/07/16 01:18:08;;;;;;;9.52;3.85;;;28.50;50.70;;;;;;4359685;32;20635;-36
2021/07/16 01:20:34;;;;;;;6.00;4.00;;;28.50;50.70;;;;;;4333476;32;20543;-36
2021/07/16 01:23:07;;;;;;;10.27;4.60;;;28.60;50.80;;;;;;4359353;32;20082;-36
2021/07/16 01:25:34;;;;;;;4.53;4.00;;;28.60;50.70;;;;;;4359871;32;20460;-36
2021/07/16 01:28:01;;;;;;;4.40;3.97;;;28.70;50.60;;;;;;4359611;32;20142;-36
2021/07/16 01:30:32;;;;;;;6.87;3.90;;;28.80;50.50;;;;;;4333774;32;20104;-36
2021/07/16 01:33:00;;;;;;;7.85;4.50;;;28.90;50.20;;;;;;4359435;32;20090;-36
2021/07/16 01:35:27;;;;;;;7.05;3.80;;;29.00;50.00;;;;;;4346057;32;20491;-36
2021/07/16 01:37:54;;;;;;;8.75;4.40;;;29.20;49.80;;;;;;4345829;32;20058;-37
2021/07/16 01:40:22;;;;;;;15.57;5.80;;;29.30;49.60;;;;;;4345505;32;20099;-35
2021/07/16 01:42:51;;;;;;;5.60;3.95;;;29.40;49.40;;;;;;4359148;32;20134;-37
2021/07/16 01:45:20;;;;;;;6.82;4.12;;;29.60;49.10;;;;;;4359196;32;20182;-36
2021/07/16 01:47:56;;;;;;;5.50;4.35;;;29.70;48.70;;;;;;4359387;32;20174;-36
2021/07/16 01:50:23;;;;;;;4.95;4.28;;;29.90;48.60;;;;;;4312205;33;20102;-37
2021/07/16 01:52:50;;;;;;;6.90;4.12;;;30.00;48.10;;;;;;4312187;33;20650;-36
2021/07/16 01:55:18;;;;;;;8.10;4.30;;;30.00;47.80;;;;;;4312670;33;20074;-35
2021/07/16 01:57:57;;;;;;;6.22;4.43;;;30.10;47.70;;;;;;4312544;33;20547;-36
2021/07/16 02:00:27;;;;;;;5.30;4.78;;;30.20;47.70;;;;;;4300410;33;20064;-37
2021/07/16 02:03:03;;;;;;;9.63;4.05;;;30.40;47.60;;;;;;4300709;33;20504;-37
2021/07/16 02:05:29;;;;;;;7.50;3.85;;;30.50;47.40;;;;;;4312173;33;20106;-37
2021/07/16 02:08:00;;;;;;;8.50;3.75;;;30.70;47.40;;;;;;4312136;33;20091;-37
2021/07/16 02:10:27;;;;;;;6.25;3.97;;;30.90;47.20;;;;;;4312185;33;20483;-37
2021/07/16 02:12:55;;;;;;;4.15;3.75;;;31.00;46.80;;;;;;4312339;33;20082;-37
2021/07/16 02:15:23;;;;;;;5.97;3.72;;;31.10;46.50;;;;;;4300162;33;20175;-37
2021/07/16 02:17:50;;;;;;;4.87;4.40;;;31.30;46.40;;;;;;4312331;33;20208;-37
2021/07/16 02:20:29;;;;;;;4.90;4.43;;;31.30;46.10;;;;;;4312424;33;20087;-37
2021/07/16 02:22:58;;;;;;;13.23;4.45;;;31.40;45.90;;;;;;4329178;33;20078;-37
2021/07/16 02:25:26;;;;;;;7.57;3.85;;;31.40;46.00;;;;;;4329077;33;20071;-37
2021/07/16 02:27:55;;;;;;;4.75;4.28;;;31.40;45.80;;;;;;4315290;33;20098;-37
2021/07/16 02:30:22;;;;;;;7.50;4.53;;;31.40;45.60;;;;;;4282322;33;20486;-36
2021/07/16 02:32:49;;;;;;;6.78;4.57;;;31.40;45.40;;;;;;4282848;33;20081;-36
2021/07/16 02:35:15;;;;;;;6.93;4.40;;;31.30;45.30;;;;;;4271160;33;20143;-36
2021/07/16 02:37:42;;;;;;;7.65;4.03;;;31.30;45.30;;;;;;4282546;33;20128;-36
2021/07/16 02:40:10;;;;;;;6.18;4.90;;;31.30;45.30;;;;;;4282969;33;20060;-36
2021/07/16 02:42:37;;;;;;;8.07;4.20;;;31.20;45.20;;;;;;4282804;33;20092;-36
2021/07/16 02:45:08;;;;;;;5.30;4.53;;;31.20;45.00;;;;;;4270812;33;20064;-36
2021/07/16 02:47:36;;;;;;;7.70;4.10;;;31.20;45.00;;;;;;4282923;33;20061;-36
2021/07/16 02:50:23;;;;;;;7.00;4.22;;;31.20;45.20;;;;;;4282606;33;20106;-36
2021/07/16 02:52:50;;;;;;;9.77;4.35;;;31.20;45.20;;;;;;4282813;33;20091;-37
2021/07/16 02:55:16;;;;;;;6.12;4.37;;;31.20;45.00;;;;;;4270622;33;20561;-36
2021/07/16 02:57:43;;;;;;;5.65;4.72;;;31.10;44.70;;;;;;4276250;33;20607;-36
2021/07/16 03:00:15;;;;;;;5.37;4.05;;;31.10;44.80;;;;;;4297140;33;20144;-36
2021/07/16 03:02:47;;;;;;;7.85;4.28;;;31.00;44.80;;;;;;4315080;33;20126;-37
2021/07/16 03:05:22;;;;;;;8.20;4.15;;;31.00;45.00;;;;;;4329064;33;20075;-36
2021/07/16 03:07:48;;;;;;;4.65;4.07;;;31.10;44.70;;;;;;4333547;33;20062;-36
2021/07/16 03:10:18;;;;;;;6.53;3.97;;;31.20;44.50;;;;;;4329671;33;20074;-36
2021/07/16 03:12:45;;;;;;;5.62;4.68;;;31.30;44.20;;;;;;4329389;33;20459;-36
2021/07/16 03:15:14;;;;;;;4.43;3.85;;;31.40;44.00;;;;;;4329478;33;20067;-37
2021/07/16 03:17:41;;;;;;;8.20;4.20;;;31.50;43.80;;;;;;4329154;33;20512;-37
2021/07/16 03:20:09;;;;;;;5.43;4.60;;;31.60;43.60;;;;;;4343313;33;20075;-36
2021/07/16 03:22:36;;;;;;;4.75;3.83;;;31.60;43.80;;;;;;4329426;33;20074;-36
2021/07/16 03:25:05;;;;;;;6.93;4.55;;;31.70;43.50;;;;;;4310673;33;20495;-36
2021/07/16 03:27:31;;;;;;;6.60;4.60;;;31.90;43.10;;;;;;4311360;33;20558;-36
2021/07/16 03:29:58;;;;;;;7.15;4.15;;;32.00;42.90;;;;;;4311037;33;20549;-35
2021/07/16 03:32:25;;;;;;;7.40;4.75;;;32.10;42.80;;;;;;4311397;33;20538;-37
2021/07/16 03:34:51;;;;;;;5.95;4.03;;;32.40;42.70;;;;;;4311532;33;20075;-36
2021/07/16 03:37:17;;;;;;;9.70;4.62;;;32.60;42.40;;;;;;4298975;33;20086;-37
2021/07/16 03:39:45;;;;;;;4.65;4.20;;;32.90;42.20;;;;;;4311420;33;20535;-37
2021/07/16 03:42:11;;;;;;;9.18;5.12;;;33.10;42.00;;;;;;4311222;33;20154;-37
2021/07/16 03:44:38;;;;;;;9.05;4.70;;;33.30;41.20;;;;;;4311562;33;20060;-38
2021/07/16 03:47:12;;;;;;;5.28;4.57;;;33.60;40.70;;;;;;4281808;33;20770;-37
2021/07/16 03:49:39;;;;;;;5.55;4.72;;;33.80;40.00;;;;;;4281985;33;20083;-37
2021/07/16 03:52:06;;;;;;;5.55;5.05;;;33.80;39.50;;;;;;4282416;33;20576;-37
2021/07/16 03:54:34;;;;;;;7.15;5.20;;;33.80;39.50;;;;;;4281907;33;20140;-37
2021/07/16 03:57:00;;;;;;;6.80;4.60;;;33.80;39.40;;;;;;4282224;33;20087;-37
2021/07/16 03:59:27;;;;;;;5.57;4.85;;;33.70;39.30;;;;;;4269794;33;20080;-36
2021/07/16 04:01:53;;;;;;;9.85;4.70;;;33.90;38.70;;;;;;4289274;33;20110;-37
2021/07/16 04:04:20;;;;;;;8.88;5.05;;;34.10;38.70;;;;;;4310774;33;20079;-36
2021/07/16 04:06:54;;;;;;;10.85;4.50;;;34.40;37.90;;;;;;4269650;33;20255;-37
2021/07/16 04:09:34;;;;;;;10.07;5.32;;;34.70;37.50;;;;;;4281611;33;20075;-36
2021/07/16 04:12:10;;;;;;;8.20;5.22;;;34.90;37.00;;;;;;4281854;33;20096;-36
2021/07/16 04:14:38;;;;;;;5.72;4.20;;;35.10;36.80;;;;;;4284558;33;20607;-37
2021/07/16 04:17:07;;;;;;;6.65;5.03;;;35.20;36.70;;;;;;4286768;33;20072;-38
2021/07/16 04:19:34;;;;;;;5.57;4.70;;;35.40;35.90;;;;;;4313465;33;20110;-38
2021/07/16 04:22:00;;;;;;;5.37;4.93;;;35.50;36.00;;;;;;4313354;33;20176;-38
2021/07/16 04:24:27;;;;;;;4.70;4.30;;;35.60;36.30;;;;;;4269721;33;20078;-36
2021/07/16 04:26:53;;;;;;;5.65;4.60;;;35.70;36.80;;;;;;4270081;33;20067;-36
2021/07/16 04:29:20;;;;;;;6.05;4.75;;;35.70;37.10;;;;;;4269984;33;20099;-36
2021/07/16 04:31:46;;;;;;;7.32;5.43;;;35.80;36.50;;;;;;4270375;33;20099;-37
2021/07/16 04:34:13;;;;;;;7.85;6.68;;;35.80;36.80;;;;;;4270014;33;20658;-36
2021/07/16 04:36:39;;;;;;;6.80;4.68;;;35.80;36.90;;;;;;4270884;33;20064;-36
2021/07/16 04:39:06;;;;;;;8.27;5.15;;;35.80;37.20;;;;;;4286907;33;20072;-37
2021/07/16 04:41:32;;;;;;;4.97;4.40;;;35.90;36.80;;;;;;4255174;33;20072;-36
2021/07/16 04:43:59;;;;;;;9.77;5.32;;;35.90;36.50;;;;;;4255254;33;20159;-36
2021/07/16 04:46:25;;;;;;;6.40;4.60;;;36.10;36.30;;;;;;4255279;33;20604;-36
2021/07/16 04:48:55;;;;;;;4.80;4.40;;;36.40;36.10;;;;;;4267694;33;20148;-35
2021/07/16 04:51:28;;;;;;;5.25;4.07;;;36.50;34.80;;;;;;4255309;33;20450;-36
2021/07/16 04:53:56;;;;;;;4.78;4.37;;;36.60;34.90;;;;;;4255201;33;20099;-37
2021/07/16 04:56:22;;;;;;;4.78;4.10;;;36.80;35.40;;;;;;4280183;33;20075;-37
2021/07/16 04:58:49;;;;;;;5.75;4.40;;;37.00;33.80;;;;;;4297485;33;20082;-36
2021/07/16 05:01:16;;;;;;;4.53;4.12;;;37.00;33.80;;;;;;4300971;33;20146;-36
2021/07/16 05:03:43;;;;;;;4.85;4.37;;;37.00;33.70;;;;;;4300907;33;20073;-37
2021/07/16 05:06:12;;;;;;;9.50;4.90;;;37.10;33.30;;;;;;4300902;33;20075;-36
2021/07/16 05:08:39;;;;;;;4.93;4.07;;;37.00;33.10;;;;;;4301268;33;20076;-37
2021/07/16 05:11:06;;;;;;;6.65;3.90;;;36.90;33.60;;;;;;4312968;33;20067;-37
2021/07/16 05:13:36;;;;;;;9.02;4.55;;;36.90;34.00;;;;;;4300482;33;20086;-36
2021/07/16 05:16:07;;;;;;;7.60;4.78;;;36.90;34.10;;;;;;4312864;33;20071;-36
2021/07/16 05:18:34;;;;;;;5.07;4.15;;;37.10;33.90;;;;;;4303228;32;20070;-37
2021/07/16 05:21:00;;;;;;;5.20;4.80;;;37.20;33.00;;;;;;4359322;32;20521;-38
2021/07/16 05:23:27;;;;;;;4.35;4.00;;;37.20;32.50;;;;;;4333093;32;20473;-38
2021/07/16 05:25:54;;;;;;;7.25;4.55;;;37.20;32.70;;;;;;4358836;32;20065;-38
2021/07/16 05:28:21;;;;;;;6.45;4.55;;;37.20;32.50;;;;;;4359929;32;20106;-37
2021/07/16 05:30:48;;;;;;;6.70;4.60;;;37.20;32.70;;;;;;4345719;32;20050;-38
2021/07/16 05:33:15;;;;;;;6.28;4.35;;;37.20;31.90;;;;;;4345333;32;20478;-38
2021/07/16 05:35:41;;;;;;;10.02;5.20;;;37.20;31.30;;;;;;4359461;32;20102;-36
2021/07/16 05:38:08;;;;;;;5.45;4.70;;;37.20;30.80;;;;;;4345037;32;20094;-38
2021/07/16 05:40:36;;;;;;;6.32;4.97;;;37.20;30.90;;;;;;4359638;32;20069;-38
2021/07/16 05:43:09;;;;;;;5.72;4.25;;;37.40;31.10;;;;;;4345482;32;20232;-38
2021/07/16 05:45:36;;;;;;;5.35;4.90;;;37.60;30.90;;;;;;4359209;32;20076;-38
2021/07/16 05:48:04;;;;;;;5.55;4.80;;;37.70;30.30;;;;;;4359072;32;20230;-38
2021/07/16 05:50:31;;;;;;;5.78;4.70;;;37.70;30.50;;;;;;4358783;32;20066;-38
2021/07/16 05:52:57;;;;;;;5.55;4.40;;;37.70;30.40;;;;;;4345117;32;20152;-37
2021/07/16 05:55:24;;;;;;;5.68;4.80;;;37.80;30.20;;;;;;4345252;32;20097;-37
2021/07/16 05:57:50;;;;;;;4.85;4.45;;;37.90;30.20;;;;;;4332966;32;20194;-37
2021/07/16 06:00:18;;;;;;;5.82;5.32;;;38.10;30.10;;;;;;4326578;33;20059;-37
2021/07/16 06:02:44;;;;;;;7.40;5.15;;;38.20;30.00;;;;;;4314362;33;20078;-37
2021/07/16 06:05:11;;;;;;;5.82;5.32;;;38.40;30.00;;;;;;4326768;33;20071;-36
2021/07/16 06:07:37;;;;;;;8.10;4.93;;;38.70;30.00;;;;;;4326683;33;20079;-37
2021/07/16 06:10:05;;;;;;;5.80;5.30;;;38.90;29.80;;;;;;4326713;33;20590;-37
2021/07/16 06:12:31;;;;;;;5.12;4.75;;;39.10;29.70;;;;;;4314660;33;20102;-37
2021/07/16 06:14:58;;;;;;;5.78;5.10;;;39.20;29.50;;;;;;4326896;33;20063;-37
2021/07/16 06:17:26;;;;;;;6.30;5.72;;;39.20;29.50;;;;;;4314462;33;20102;-37
2021/07/16 06:19:52;;;;;;;8.98;4.82;;;39.30;29.80;;;;;;4326697;33;20111;-37
2021/07/16 06:22:19;;;;;;;6.62;5.32;;;39.50;29.60;;;;;;4326661;33;20067;-38
2021/07/16 06:24:45;;;;;;;5.40;5.00;;;39.70;29.50;;;;;;4314337;33;20464;-37
2021/07/16 06:27:12;;;;;;;5.50;5.10;;;39.90;29.30;;;;;;4326218;33;20520;-38
2021/07/16 06:29:38;;;;;;;11.00;5.47;;;40.10;29.10;;;;;;4326325;33;20479;-37
2021/07/16 06:32:05;;;;;;;6.28;5.53;;;40.20;28.90;;;;;;4314230;33;20079;-38
2021/07/16 06:34:32;;;;;;;5.95;5.35;;;40.20;28.80;;;;;;4326614;33;20154;-37
2021/07/16 06:36:58;;;;;;;6.07;5.55;;;40.30;28.80;;;;;;4319282;32;20081;-37
2021/07/16 06:39:25;;;;;;;5.82;4.60;;;40.40;28.90;;;;;;4345041;32;20071;-38
2021/07/16 06:41:51;;;;;;;6.40;5.85;;;40.50;28.90;;;;;;4358627;32;20059;-39
2021/07/16 06:44:18;;;;;;;6.82;5.12;;;40.70;28.90;;;;;;4344285;32;20175;-37
2021/07/16 06:46:44;;;;;;;6.00;5.55;;;41.00;28.80;;;;;;4358169;32;20506;-37
2021/07/16 06:49:11;;;;;;;10.35;6.40;;;41.20;28.70;;;;;;4344761;32;20153;-38
2021/07/16 06:51:37;;;;;;;5.43;4.93;;;41.30;28.60;;;;;;4344803;32;20075;-37
2021/07/16 06:54:04;;;;;;;7.15;4.85;;;41.70;28.70;;;;;;4357979;32;20070;-38
2021/07/16 06:56:31;;;;;;;7.10;4.90;;;41.90;28.30;;;;;;4344491;32;20065;-37
2021/07/16 06:58:58;;;;;;;10.02;5.50;;;42.20;28.10;;;;;;4330854;33;20099;-37
2021/07/16 07:01:25;;;;;;;6.37;4.53;;;42.40;28.00;;;;;;4343493;33;20074;-37
2021/07/16 07:03:52;;;;;;;5.87;5.28;;;42.60;27.80;;;;;;4343185;33;20061;-37
2021/07/16 07:06:18;;;;;;;5.80;4.43;;;42.80;27.90;;;;;;4343191;33;20130;-37
2021/07/16 07:08:45;;;;;;;6.12;5.18;;;42.90;27.80;;;;;;4343327;33;20611;-37
2021/07/16 07:11:11;;;;;;;10.32;5.68;;;43.00;27.60;;;;;;4343554;33;20070;-37
2021/07/16 07:13:38;;;;;;;7.05;6.32;;;43.20;27.50;;;;;;4342857;33;20074;-37
2021/07/16 07:16:05;;;;;;;8.07;5.50;;;43.40;27.30;;;;;;4343030;33;20058;-37
2021/07/16 07:18:31;;;;;;;5.90;4.37;;;43.50;27.30;;;;;;4343133;33;20154;-37
2021/07/16 07:20:57;;;;;;;4.53;4.15;;;43.60;26.90;;;;;;4329421;33;20082;-37
2021/07/16 07:23:24;;;;;;;5.25;4.53;;;43.60;26.90;;;;;;4343202;33;20094;-37
2021/07/16 07:25:51;;;;;;;7.18;4.25;;;43.70;26.90;;;;;;4342969;33;20092;-37
2021/07/16 07:28:17;;;;;;;4.82;4.43;;;43.80;26.80;;;;;;4343126;33;20066;-38
2021/07/16 07:30:44;;;;;;;4.78;4.43;;;44.00;26.80;;;;;;4343178;33;20067;-38
2021/07/16 07:33:10;;;;;;;4.80;4.40;;;44.10;26.50;;;;;;4329270;33;20069;-38
2021/07/16 07:35:37;;;;;;;4.87;4.47;;;44.20;26.50;;;;;;4343387;33;20081;-38
2021/07/16 07:38:04;;;;;;;5.62;4.40;;;44.20;26.40;;;;;;4343296;33;20090;-37
2021/07/16 07:40:31;;;;;;;5.12;4.10;;;44.20;26.40;;;;;;4343103;33;20507;-38
2021/07/16 07:42:58;;;;;;;10.98;4.30;;;44.20;26.40;;;;;;4343306;33;20070;-38
2021/07/16 07:45:25;;;;;;;5.53;4.25;;;44.20;26.40;;;;;;4343273;33;20256;-38
2021/07/16 07:47:51;;;;;;;5.62;4.68;;;44.20;26.50;;;;;;4329189;33;20071;-39
2021/07/16 07:50:18;;;;;;;6.72;5.00;;;44.10;26.50;;;;;;4313363;33;20075;-38
2021/07/16 07:52:46;;;;;;;10.35;5.55;;;43.90;26.80;;;;;;4313953;33;20070;-37
2021/07/16 07:55:13;;;;;;;8.77;5.18;;;43.60;27.10;;;;;;4313830;33;20163;-42
2021/07/16 07:57:39;;;;;;;6.22;4.93;;;43.40;27.60;;;;;;4307609;33;20070;-39
2021/07/16 08:00:09;;;;;;;6.15;5.37;;;43.40;27.50;;;;;;4328495;33;20067;-38
2021/07/16 08:02:36;;;;;;;7.62;4.45;;;43.40;27.70;;;;;;4316072;33;20074;-39
2021/07/16 08:05:03;;;;;;;4.22;3.83;;;43.60;27.70;;;;;;4316587;33;20070;-38
2021/07/16 08:07:29;;;;;;;4.60;4.20;;;43.80;27.10;;;;;;4331383;33;20172;-38
2021/07/16 08:09:56;;;;;;;7.93;4.57;;;44.00;26.80;;;;;;4343624;33;20078;-38
2021/07/16 08:12:22;;;;;;;10.93;4.82;;;44.40;26.30;;;;;;4343074;33;20082;-38
2021/07/16 08:14:48;;;;;;;4.62;4.28;;;44.70;26.30;;;;;;4318620;33;20058;-38
2021/07/16 08:17:15;;;;;;;5.72;4.10;;;44.90;26.10;;;;;;4343025;33;20604;-38
2021/07/16 08:19:41;;;;;;;5.45;4.75;;;45.00;25.90;;;;;;4343258;33;20105;-44
2021/07/16 08:22:08;;;;;;;5.18;4.40;;;45.20;26.10;;;;;;4342852;33;20117;-37
2021/07/16 08:24:34;;;;;;;5.50;4.60;;;45.20;25.70;;;;;;4342980;33;20186;-37
2021/07/16 08:27:01;;;;;;;5.50;4.37;;;45.10;26.10;;;;;;4346496;32;20491;-38
2021/07/16 08:29:27;;;;;;;4.60;4.18;;;44.90;26.00;;;;;;4360081;32;20142;-37
2021/07/16 08:31:54;;;;;;;4.90;4.40;;;44.90;26.40;;;;;;4360247;32;20462;-37
2021/07/16 08:34:20;;;;;;;4.57;4.18;;;45.00;26.00;;;;;;4346472;32;20511;-37
2021/07/16 08:36:46;;;;;;;4.55;4.00;;;45.30;25.80;;;;;;4359988;32;20145;-37
2021/07/16 08:39:13;;;;;;;4.47;3.78;;;45.50;26.00;;;;;;4345768;32;20600;-37
2021/07/16 08:41:40;;;;;;;4.45;4.15;;;45.50;25.70;;;;;;4360268;32;20073;-37
2021/07/16 08:44:07;;;;;;;4.43;4.10;;;45.50;26.00;;;;;;4359965;32;20188;-38
2021/07/16 08:46:34;;;;;;;10.80;4.85;;;45.30;26.00;;;;;;4327178;33;20093;-37
2021/07/16 08:49:01;;;;;;;5.37;4.97;;;44.90;26.70;;;;;;4315671;33;20070;-38
2021/07/16 08:51:27;;;;;;;6.53;4.93;;;44.50;27.60;;;;;;4314949;33;20468;-38
2021/07/16 08:53:55;;;;;;;5.50;4.93;;;44.00;28.20;;;;;;4327136;33;20059;-38
2021/07/16 08:56:24;;;;;;;7.90;5.32;;;43.50;28.20;;;;;;4312548;33;20079;-38
2021/07/16 08:58:50;;;;;;;9.77;5.37;;;42.90;28.20;;;;;;4300345;33;20083;-38
2021/07/16 09:01:17;;;;;;;6.85;5.20;;;42.50;28.30;;;;;;4297515;33;20084;-38
2021/07/16 09:03:55;;;;;;;10.02;5.18;;;41.90;28.70;;;;;;4298723;33;20500;-38
2021/07/16 09:07:00;;;;;;;8.20;5.20;;;41.20;29.70;;;;;;4286528;33;20228;-37
2021/07/16 09:09:36;;;;;;;17.55;6.05;;;40.40;30.10;;;;;;4269408;33;20576;-37
2021/07/16 09:12:10;;;;;;;9.95;5.03;;;39.40;31.50;;;;;;4269451;33;20529;-37
2021/07/16 09:14:36;;;;;;;11.50;5.25;;;38.60;32.30;;;;;;4257716;33;20080;-37
2021/07/16 09:17:15;;;;;;;13.77;4.78;;;37.90;33.60;;;;;;4269653;33;20072;-38
2021/07/16 09:19:50;;;;;;;9.43;4.43;;;37.20;33.60;;;;;;4257714;33;20079;-38
2021/07/16 09:22:21;;;;;;;11.43;5.53;;;36.50;34.50;;;;;;4257502;33;20103;-38
2021/07/16 09:24:56;;;;;;;12.10;4.40;;;36.00;35.10;;;;;;4257517;33;20075;-37
2021/07/16 09:27:40;;;;;;;11.88;5.15;;;35.60;35.50;;;;;;4257531;33;20069;-37
2021/07/16 09:30:23;;;;;;;8.00;4.97;;;35.20;36.40;;;;;;4269166;33;20127;-36
2021/07/16 09:33:02;;;;;;;11.85;5.47;;;35.00;37.60;;;;;;4269979;33;20613;-37
2021/07/16 09:35:33;;;;;;;12.88;6.12;;;34.80;38.30;;;;;;4283685;33;20178;-37
2021/07/16 09:38:08;;;;;;;8.65;4.80;;;34.80;38.50;;;;;;4229066;33;20580;-38
2021/07/16 09:40:40;;;;;;;15.57;6.50;;;34.80;37.80;;;;;;4241192;33;20089;-37
2021/07/16 09:43:18;;;;;;;15.05;5.80;;;34.90;38.30;;;;;;4241111;33;20065;-38
2021/07/16 09:45:51;;;;;;;14.52;6.55;;;35.00;38.30;;;;;;4274346;33;20064;-37
2021/07/16 09:48:38;;;;;;;10.18;5.53;;;35.10;38.30;;;;;;4268928;33;20592;-37
2021/07/16 09:51:26;;;;;;;14.18;5.85;;;35.10;38.70;;;;;;4268930;33;20644;-37
2021/07/16 09:54:02;;;;;;;10.70;6.05;;;35.00;40.20;;;;;;4268222;33;20142;-36
2021/07/16 09:56:35;;;;;;;13.90;6.05;;;34.80;39.60;;;;;;4268914;33;20072;-37
2021/07/16 09:59:10;;;;;;;12.48;5.70;;;34.60;39.90;;;;;;4282397;33;20072;-38
2021/07/16 10:01:41;;;;;;;4.35;3.95;;;34.60;39.80;;;;;;4283353;33;20060;-36
2021/07/16 10:04:23;;;;;;;7.07;5.10;;;34.50;38.40;;;;;;4283321;33;20059;-37
2021/07/16 10:06:54;;;;;;;11.73;6.20;;;34.50;39.70;;;;;;4283320;33;20179;-37
2021/07/16 10:09:22;;;;;;;5.87;5.03;;;34.40;39.10;;;;;;4301198;33;20106;-36
2021/07/16 10:11:50;;;;;;;5.68;4.78;;;34.30;37.60;;;;;;4312098;33;20083;-36
2021/07/16 10:14:17;;;;;;;7.07;4.37;;;34.30;36.90;;;;;;4311788;33;20072;-37
2021/07/16 10:16:45;;;;;;;9.45;4.25;;;34.30;36.90;;;;;;4312207;33;20546;-37
2021/07/16 10:19:13;;;;;;;7.65;3.92;;;34.50;36.20;;;;;;4326382;33;20111;-38
2021/07/16 10:21:43;;;;;;;3.42;3.10;;;34.70;35.50;;;;;;4297328;33;20568;-38
2021/07/16 10:24:11;;;;;;;3.42;3.10;;;35.10;34.70;;;;;;4297027;33;20086;-38
2021/07/16 10:26:37;;;;;;;5.85;3.47;;;35.40;33.10;;;;;;4285655;33;20157;-38
2021/07/16 10:29:25;;;;;;;7.30;3.40;;;35.80;32.90;;;;;;4274095;33;20110;-38
2021/07/16 10:31:52;;;;;;;8.18;3.60;;;35.90;32.50;;;;;;4286997;33;20063;-37
2021/07/16 10:34:31;;;;;;;4.32;3.17;;;35.90;34.00;;;;;;4297185;33;20087;-38
2021/07/16 10:37:02;;;;;;;5.60;3.55;;;35.80;34.90;;;;;;4297255;33;20492;-37
2021/07/16 10:39:44;;;;;;;6.10;3.65;;;35.80;35.20;;;;;;4297179;33;20108;-37
2021/07/16 10:42:44;;;;;;;5.62;2.75;;;35.70;36.20;;;;;;4297359;33;20438;-38
2021/07/16 10:45:11;;;;;;;6.30;3.60;;;35.60;36.40;;;;;;4240146;33;20168;-37
2021/07/16 10:47:45;;;;;;;5.35;3.97;;;35.60;36.40;;;;;;4240223;33;20503;-37
2021/07/16 10:50:12;;;;;;;7.28;3.92;;;35.50;36.50;;;;;;4240158;33;20060;-37
2021/07/16 10:52:46;;;;;;;9.23;3.47;;;35.30;37.40;;;;;;4260831;33;20505;-38
2021/07/16 10:55:15;;;;;;;13.07;3.53;;;35.20;37.90;;;;;;4282555;33;20132;-37
2021/07/16 10:57:46;;;;;;;8.40;3.72;;;35.20;38.80;;;;;;4281930;33;20064;-37
2021/07/16 11:00:36;;;;;;;5.78;3.15;;;35.40;39.00;;;;;;4282679;33;20156;-37
2021/07/16 11:03:12;;;;;;;5.65;3.67;;;35.60;38.60;;;;;;4272960;33;20068;-37
2021/07/16 11:05:39;;;;;;;8.05;4.55;;;36.00;37.80;;;;;;4282907;33;20095;-37
2021/07/16 11:08:06;;;;;;;6.18;3.33;;;36.20;37.50;;;;;;4288523;33;20599;-37
2021/07/16 11:10:55;;;;;;;3.90;3.60;;;36.40;37.10;;;;;;4297099;33;20084;-36
2021/07/16 11:13:39;;;;;;;5.95;3.60;;;36.60;36.90;;;;;;4296543;33;20099;-36
2021/07/16 11:16:27;;;;;;;4.82;3.78;;;36.60;36.80;;;;;;4296551;33;20140;-38
2021/07/16 11:18:56;;;;;;;6.80;3.75;;;36.60;36.90;;;;;;4296426;33;20579;-38
2021/07/16 11:21:47;;;;;;;5.30;4.22;;;36.60;37.20;;;;;;4342976;32;20137;-38
2021/07/16 11:24:20;;;;;;;6.70;4.05;;;36.40;36.60;;;;;;4310159;33;20102;-38
2021/07/16 11:27:07;;;;;;;4.87;3.00;;;36.10;35.90;;;;;;4311104;33;20154;-37
2021/07/16 11:29:45;;;;;;;3.90;3.50;;;35.80;36.10;;;;;;4301390;33;20090;-37
2021/07/16 11:32:27;;;;;;;5.75;4.05;;;35.60;35.70;;;;;;4311457;33;20079;-37
2021/07/16 11:35:01;;;;;;;4.65;4.22;;;35.50;36.20;;;;;;4310920;33;20200;-37
2021/07/16 11:37:40;;;;;;;7.32;4.95;;;35.50;36.30;;;;;;4310978;33;20067;-38
2021/07/16 11:40:10;;;;;;;5.53;3.95;;;35.40;35.60;;;;;;4311090;33;20071;-38
2021/07/16 11:42:53;;;;;;;6.65;4.25;;;35.30;35.20;;;;;;4311177;33;20151;-37
2021/07/16 11:45:27;;;;;;;9.85;4.35;;;35.30;35.00;;;;;;4286844;33;20063;-37
2021/07/16 11:47:55;;;;;;;10.63;4.60;;;35.40;34.90;;;;;;4310933;33;20169;-37
2021/07/16 11:50:22;;;;;;;5.35;3.97;;;35.60;34.40;;;;;;4310755;33;20176;-38
2021/07/16 11:52:50;;;;;;;7.90;3.85;;;35.60;33.90;;;;;;4311084;33;20086;-38
2021/07/16 11:55:22;;;;;;;8.35;5.28;;;35.70;33.80;;;;;;4334354;32;20503;-38
2021/07/16 11:58:07;;;;;;;4.00;3.42;;;35.80;33.90;;;;;;4334616;33;20622;-38
2021/07/16 12:00:37;;;;;;;4.53;4.03;;;35.90;35.40;;;;;;4328249;33;20097;-38
2021/07/16 12:03:13;;;;;;;5.60;4.18;;;36.10;35.90;;;;;;4327955;33;20102;-38
2021/07/16 12:05:54;;;;;;;5.60;4.28;;;36.20;35.60;;;;;;4328310;33;20074;-38
2021/07/16 12:08:29;;;;;;;8.15;4.45;;;36.20;35.20;;;;;;4335814;33;20572;-38
2021/07/16 12:11:13;;;;;;;9.57;4.32;;;36.20;35.40;;;;;;4328973;33;20115;-37
2021/07/16 12:13:42;;;;;;;;;;;36.20;35.20;;;;;;4343150;33;20090;-37
2021/07/16 12:16:13;;;;;;;8.27;4.43;;;36.20;34.90;;;;;;4342797;33;20034;-37
2021/07/16 12:18:40;;;;;;;4.45;4.07;;;36.30;34.80;;;;;;4342811;33;20101;-38
2021/07/16 12:21:09;;;;;;;11.57;5.07;;;36.20;34.50;;;;;;4329207;33;20069;-37
2021/07/16 12:23:35;;;;;;;8.60;4.35;;;36.20;35.00;;;;;;4328858;33;20527;-38
2021/07/16 12:26:21;;;;;;;5.97;4.18;;;36.30;35.50;;;;;;4328646;33;20550;-38
2021/07/16 12:28:50;;;;;;;6.05;4.68;;;36.30;35.70;;;;;;4342272;33;20077;-37
2021/07/16 12:31:22;;;;;;;8.00;4.20;;;36.20;36.20;;;;;;4342426;33;20101;-37
2021/07/16 12:33:49;;;;;;;7.03;4.93;;;36.00;36.80;;;;;;4342451;32;20075;-37
2021/07/16 12:36:27;;;;;;;10.30;4.75;;;35.80;37.50;;;;;;4319032;33;20106;-38
2021/07/16 12:38:56;;;;;;;4.10;3.80;;;35.60;38.10;;;;;;4345119;33;20066;-38
2021/07/16 12:41:23;;;;;;;8.88;4.78;;;35.50;37.70;;;;;;4331291;33;20074;-37
2021/07/16 12:43:50;;;;;;;6.03;4.30;;;35.50;37.80;;;;;;4344870;33;20090;-37
2021/07/16 12:46:27;;;;;;;6.45;4.75;;;35.40;38.60;;;;;;4345101;33;20105;-38
2021/07/16 12:48:53;;;;;;;6.65;5.28;;;35.40;39.20;;;;;;4345098;33;20062;-38
2021/07/16 12:51:20;;;;;;;5.72;4.60;;;35.40;39.60;;;;;;4345208;33;20153;-38
2021/07/16 12:53:55;;;;;;;5.28;3.85;;;35.50;40.00;;;;;;4331367;33;20098;-38
2021/07/16 12:56:38;;;;;;;5.00;4.05;;;35.40;40.00;;;;;;4298579;33;20080;-38
2021/07/16 12:59:22;;;;;;;4.55;4.07;;;35.50;40.20;;;;;;4327018;33;20551;-38